This is the latest recevied weather packets stored in our database for station/object W7BTL. If no packets are shown the sender has not sent any weather packets the latest 10 day(s).
| Time | Temp. | Humidity | Pressure | Rain* | Wind** | Luminosity | Snow |
|---|---|---|---|---|---|---|---|
| 1778114654 | 22.22° C | 51% | 1015.6 hPa | 0 mm | - | 40 W/m² | - |
| 1778114352 | 22.78° C | 50% | 1015.7 hPa | 0 mm | - | 42 W/m² | - |
| 1778114047 | 22.78° C | 48% | 1015.7 hPa | 0 mm | - | 43 W/m² | - |
| 1778113743 | 23.33° C | 48% | 1015.6 hPa | 0 mm | - | 45 W/m² | - |
| 1778113439 | 23.33° C | 47% | 1015.5 hPa | 0 mm | - | 46 W/m² | - |
| 1778113136 | 23.33° C | 47% | 1015.6 hPa | 0 mm | - | 47 W/m² | - |
| 1778112833 | 23.89° C | 47% | 1015.3 hPa | 0 mm | - | 49 W/m² | - |
| 1778112530 | 23.89° C | 47% | 1015.5 hPa | 0 mm | - | 50 W/m² | - |
| 1778112225 | 24.44° C | 45% | 1015.6 hPa | 0 mm | - | 51 W/m² | - |
| 1778111922 | 24.44° C | 45% | 1015.4 hPa | 0 mm | - | 52 W/m² | - |
| 1778111619 | 24.44° C | 45% | 1015.5 hPa | 0 mm | - | 53 W/m² | - |
| 1778111315 | 24.44° C | 45% | 1015.5 hPa | 0 mm | - | 54 W/m² | - |
| 1778111012 | 25° C | 45% | 1015.5 hPa | 0 mm | - | 55 W/m² | - |
| 1778110710 | 25° C | 44% | 1015.4 hPa | 0 mm | - | 56 W/m² | - |
| 1778110406 | 25° C | 44% | 1015.4 hPa | 0 mm | - | 58 W/m² | - |
| 1778110103 | 25° C | 44% | 1015.5 hPa | 0 mm | - | 59 W/m² | - |
| 1778109798 | 25.56° C | 42% | 1015.3 hPa | 0 mm | - | 60 W/m² | - |
| 1778109495 | 26.11° C | 42% | 1015.5 hPa | 0 mm | - | 61 W/m² | - |
| 1778109193 | 26.11° C | 42% | 1015.7 hPa | 0 mm | - | 63 W/m² | - |
| 1778108890 | 26.11° C | 41% | 1015.6 hPa | 0 mm | - | 65 W/m² | - |
| 1778108587 | 27.22° C | 40% | 1015.7 hPa | 0 mm | - | 67 W/m² | - |
| 1778108283 | 28.89° C | 37% | 1015.6 hPa | 0 mm | - | 631 W/m² | - |
| 1778107980 | 30° C | 35% | 1015.7 hPa | 0 mm | - | 658 W/m² | - |
| 1778107677 | 31.11° C | 33% | 1015.6 hPa | 0 mm | - | 690 W/m² | - |
| 1778107375 | 31.67° C | 31% | 1015.8 hPa | 0 mm | - | 710 W/m² | - |
* Rain latest hour (hover to see other rain measurements)
** Current wind speed in m/s (hover to see current wind gust speed)